Time;durP1;ratioP1;P1;durP2;ratioP2;P2;SDS_P1;SDS_P2;PMS_P1;PMS_P2;Temp;Humidity;BMP_temperature;BMP_pressure;BME280_temperature;BME280_humidity;BME280_pressure;Samples;Min_cycle;Max_cycle;Signal;HPM_P1;HPM_P2
2021/12/20 00:02:22;;;;;;;14.20;4.58;;;;;;;1.23;78.20;100355.95;2173292;80;29902;-63
2021/12/20 00:05:24;;;;;;;10.58;4.35;;;;;;;1.18;78.24;100364.78;2167772;81;32454;-71
2021/12/20 00:08:28;;;;;;;14.28;5.55;;;;;;;1.13;78.22;100363.94;2138805;83;34237;-62
2021/12/20 00:11:31;;;;;;;10.47;4.97;;;;;;;1.09;78.20;100356.94;2171045;81;30348;-62
2021/12/20 00:14:32;;;;;;;12.25;4.78;;;;;;;1.04;78.22;100358.77;2143703;83;28216;-62
2021/12/20 00:17:36;;;;;;;10.28;4.30;;;;;;;0.98;78.15;100353.54;2142575;81;27813;-66
2021/12/20 00:20:39;;;;;;;15.38;4.70;;;;;;;0.92;78.16;100354.47;2170698;81;32287;-62
2021/12/20 00:23:41;;;;;;;10.78;4.25;;;;;;;0.85;78.20;100358.04;2174977;80;33218;-64
2021/12/20 00:26:42;;;;;;;10.68;4.15;;;;;;;0.78;78.23;100367.77;2180533;80;29065;-62
2021/12/20 00:29:47;;;;;;;10.55;4.67;;;;;;;0.75;78.27;100374.38;2171503;81;28214;-62
2021/12/20 00:32:48;;;;;;;17.33;4.37;;;;;;;0.70;78.28;100373.56;2145327;82;28690;-67
2021/12/20 00:35:50;;;;;;;13.53;4.78;;;;;;;0.64;78.36;100374.92;2136549;81;31932;-67
2021/12/20 00:42:13;;;;;;;11.85;4.12;;;;;;;0.56;78.35;100369.70;2161310;81;29828;-62
2021/12/20 00:45:15;;;;;;;13.80;5.25;;;;;;;0.52;78.44;100382.47;2140965;82;27742;-62
2021/12/20 00:48:16;;;;;;;10.90;4.60;;;;;;;0.48;78.46;100379.45;2169655;81;29946;-61
2021/12/20 00:51:28;;;;;;;16.12;4.40;;;;;;;0.44;78.50;100375.50;2175661;81;31121;-62
2021/12/20 00:54:39;;;;;;;14.83;4.60;;;;;;;0.42;78.63;100386.50;2137547;82;33513;-73
2021/12/20 00:57:48;;;;;;;15.35;4.62;;;;;;;0.43;78.82;100400.53;2154753;81;27832;-61
2021/12/20 01:00:52;;;;;;;12.88;4.20;;;;;;;0.46;78.96;100404.47;2183361;81;27665;-68
2021/12/20 01:04:05;;;;;;;10.60;4.22;;;;;;;0.50;79.16;100402.26;2141291;83;29309;-63
2021/12/20 01:07:17;;;;;;;14.30;4.53;;;;;;;0.56;79.24;100398.28;2137454;83;31921;-62
2021/12/20 01:10:19;;;;;;;9.33;4.05;;;;;;;0.61;79.27;100391.64;2108194;83;33016;-72
2021/12/20 01:13:28;;;;;;;14.30;4.72;;;;;;;0.67;79.28;100392.90;2147321;81;29492;-61
2021/12/20 01:16:32;;;;;;;8.85;3.83;;;;;;;0.73;79.30;100402.55;2139049;83;27736;-61
2021/12/20 01:19:36;;;;;;;14.13;5.08;;;;;;;0.78;79.31;100402.51;2176592;81;29882;-66
2021/12/20 01:22:40;;;;;;;15.85;4.30;;;;;;;0.83;79.33;100403.36;2139281;83;31034;-62
2021/12/20 01:25:42;;;;;;;7.33;4.08;;;;;;;0.90;79.39;100392.75;2137000;83;34204;-61
2021/12/20 01:28:44;;;;;;;13.58;5.00;;;;;;;0.98;79.42;100401.02;2137339;83;29849;-61
2021/12/20 01:31:46;;;;;;;16.42;4.20;;;;;;;1.03;79.34;100402.72;2137339;83;28224;-61
2021/12/20 01:34:48;;;;;;;10.28;3.85;;;;;;;1.11;79.38;100404.44;2139217;83;29073;-62
2021/12/20 01:37:51;;;;;;;10.78;4.25;;;;;;;1.17;79.36;100404.36;2176552;81;32277;-61
2021/12/20 01:40:53;;;;;;;11.83;4.53;;;;;;;1.23;79.34;100406.09;2139350;83;34265;-66
2021/12/20 01:43:55;;;;;;;13.10;4.75;;;;;;;1.29;79.36;100409.55;2176585;81;30369;-63
2021/12/20 01:47:00;;;;;;;10.63;4.15;;;;;;;1.35;79.31;100416.06;2176798;81;27619;-62
2021/12/20 01:50:15;;;;;;;12.37;5.55;;;;;;;1.41;79.23;100415.58;2176855;81;29079;-70
2021/12/20 01:53:22;;;;;;;9.30;4.28;;;;;;;1.46;79.18;100409.36;2174402;81;31924;-60
2021/12/20 01:56:24;;;;;;;10.20;4.25;;;;;;;1.50;79.14;100403.59;2138934;83;34201;-64
2021/12/20 01:59:26;;;;;;;8.23;3.75;;;;;;;1.54;79.09;100403.99;2137529;83;30183;-72
2021/12/20 02:02:28;;;;;;;10.45;4.33;;;;;;;1.61;79.04;100414.04;2137286;83;27719;-61
2021/12/20 02:08:43;;;;;;;10.15;4.05;;;;;;;1.67;78.83;100413.52;2138864;83;31489;-75
2021/12/20 02:11:48;;;;;;;9.50;4.00;;;;;;;1.73;78.71;100412.61;2176575;81;34208;-68
2021/12/20 02:14:50;;;;;;;9.08;3.85;;;;;;;1.77;78.68;100416.94;2139206;83;29055;-70
2021/12/20 02:17:52;;;;;;;8.88;4.53;;;;;;;1.82;78.64;100423.52;2176521;81;27809;-68
2021/12/20 02:20:55;;;;;;;10.10;4.65;;;;;;;1.85;78.55;100431.38;2176649;81;29643;-66
2021/12/20 02:23:56;;;;;;;9.90;4.22;;;;;;;1.88;78.54;100435.77;2176778;81;32366;-62
2021/12/20 02:26:58;;;;;;;10.48;4.45;;;;;;;1.91;78.46;100426.03;2175529;81;33011;-63
2021/12/20 02:39:25;;;;;;;11.15;4.05;;;;;;;2.00;78.18;100421.09;2175232;81;31593;-65
2021/12/20 02:42:33;;;;;;;8.08;3.85;;;;;;;2.03;78.11;100419.73;2139447;83;33491;-68
2021/12/20 02:45:33;;;;;;;9.18;3.55;;;;;;;2.05;77.92;100426.30;2137364;83;29515;-75
2021/12/20 02:48:34;;;;;;;8.38;4.03;;;;;;;2.05;77.81;100417.95;2148061;81;27723;-68
2021/12/20 02:51:38;;;;;;;6.95;3.27;;;;;;;2.06;77.57;100432.02;2135267;83;29556;-79
2021/12/20 02:54:40;;;;;;;8.25;3.80;;;;;;;2.05;77.53;100432.91;2135377;83;31145;-70
2021/12/20 02:57:42;;;;;;;7.75;2.98;;;;;;;2.06;77.51;100439.95;2151482;81;34193;-76
2021/12/20 03:00:44;;;;;;;5.37;3.00;;;;;;;2.06;77.49;100436.87;2139132;83;30385;-74
2021/12/20 03:03:49;;;;;;;9.15;3.92;;;;;;;2.08;77.56;100432.88;2175523;81;28242;-73
2021/12/20 03:06:56;;;;;;;6.90;3.45;;;;;;;2.11;77.49;100426.23;2150435;82;28536;-74
2021/12/20 03:10:02;;;;;;;6.17;2.87;;;;;;;2.11;77.47;100422.27;2136480;83;31044;-77
2021/12/20 03:13:01;;;;;;;6.37;3.12;;;;;;;2.11;77.29;100418.31;2135823;83;32977;-68
2021/12/20 03:16:04;;;;;;;8.75;3.47;;;;;;;2.09;77.23;100413.48;2149353;82;29451;-69
2021/12/20 03:19:06;;;;;;;4.78;2.80;;;;;;;2.06;77.18;100414.41;2171435;82;27582;-63
2021/12/20 03:22:09;;;;;;;7.78;2.83;;;;;;;2.05;77.14;100413.09;2171561;82;28636;-71
2021/12/20 03:25:11;;;;;;;8.65;3.25;;;;;;;2.02;76.98;100423.70;2168219;82;31886;-73
2021/12/20 03:28:13;;;;;;;7.62;3.50;;;;;;;1.97;76.85;100418.05;2135886;83;34198;-73
2021/12/20 03:31:15;;;;;;;7.25;3.40;;;;;;;1.95;76.90;100423.80;2135991;83;29436;-70
2021/12/20 03:34:20;;;;;;;13.28;6.12;;;;;;;1.94;76.85;100430.39;2136129;83;27596;-62
2021/12/20 03:37:21;;;;;;;19.93;5.60;;;;;;;1.92;76.77;100422.50;2164262;82;28835;-72
2021/12/20 03:40:24;;;;;;;12.33;4.37;;;;;;;1.91;76.81;100420.75;2170863;82;33153;-60
2021/12/20 03:43:31;;;;;;;6.67;3.77;;;;;;;1.91;76.94;100422.07;2170884;82;34161;-66
2021/12/20 03:46:29;;;;;;;9.03;4.25;;;;;;;1.93;76.93;100424.25;2155376;82;30312;-59
2021/12/20 03:49:31;;;;;;;10.13;3.30;;;;;;;1.93;76.76;100427.33;2162570;82;27690;-59
2021/12/20 03:52:33;;;;;;;8.80;3.65;;;;;;;1.92;76.79;100430.86;2170805;82;29936;-59
2021/12/20 03:55:35;;;;;;;8.93;3.72;;;;;;;1.91;76.80;100426.46;2164795;82;31177;-58
2021/12/20 03:58:37;;;;;;;7.03;2.77;;;;;;;1.92;76.87;100444.06;2136107;83;33358;-63
2021/12/20 04:01:39;;;;;;;9.73;4.58;;;;;;;1.91;76.73;100437.92;2146645;82;30240;-69
2021/12/20 04:04:41;;;;;;;5.22;3.47;;;;;;;1.91;76.80;100433.06;2163158;81;27670;-59
2021/12/20 04:07:43;;;;;;;5.50;3.17;;;;;;;1.91;76.79;100444.53;2164683;82;29947;-62
2021/12/20 04:10:44;;;;;;;6.42;3.30;;;;;;;1.91;76.79;100441.88;2164779;82;31559;-60
2021/12/20 04:13:46;;;;;;;8.13;3.00;;;;;;;1.90;76.71;100444.09;2156131;82;33324;-63
2021/12/20 04:16:48;;;;;;;10.00;3.17;;;;;;;1.88;76.68;100445.88;2141996;83;28819;-64
2021/12/20 04:19:50;;;;;;;7.78;2.58;;;;;;;1.89;76.68;100435.74;2142033;83;27673;-63
2021/12/20 04:22:52;;;;;;;7.78;3.00;;;;;;;1.87;76.56;100434.88;2143193;82;30079;-61
2021/12/20 04:25:54;;;;;;;4.87;2.35;;;;;;;1.86;76.47;100438.41;2164478;82;31173;-59
2021/12/20 04:28:56;;;;;;;9.75;2.80;;;;;;;1.84;76.50;100433.59;2164622;82;34142;-64
2021/12/20 04:31:58;;;;;;;8.93;4.30;;;;;;;1.81;76.50;100449.03;2164941;82;29359;-60
2021/12/20 04:35:00;;;;;;;10.13;4.60;;;;;;;1.80;76.50;100449.06;2147277;82;27683;-61
2021/12/20 04:38:04;;;;;;;10.38;4.67;;;;;;;1.78;76.55;100456.12;2144670;82;29975;-65
2021/12/20 04:41:06;;;;;;;9.08;3.62;;;;;;;1.77;76.62;100451.27;2157971;82;31039;-64
2021/12/20 04:44:08;;;;;;;6.03;2.62;;;;;;;1.77;76.54;100450.41;2145030;83;34310;-67
2021/12/20 04:47:11;;;;;;;5.10;2.20;;;;;;;1.77;76.63;100451.73;2146253;82;29153;-64
2021/12/20 04:50:15;;;;;;;10.70;2.52;;;;;;;1.76;76.54;100462.73;2145284;82;27728;-61
2021/12/20 04:53:17;;;;;;;5.62;2.35;;;;;;;1.73;76.41;100473.78;2145564;83;28835;-62
2021/12/20 04:56:19;;;;;;;7.92;2.77;;;;;;;1.73;76.49;100467.18;2145076;82;32256;-61
2021/12/20 04:59:21;;;;;;;6.40;2.60;;;;;;;1.72;76.42;100475.56;2160472;82;34324;-61
2021/12/20 05:02:23;;;;;;;9.93;2.62;;;;;;;1.70;76.33;100476.45;2164610;82;30318;-62
2021/12/20 05:05:25;;;;;;;6.55;2.40;;;;;;;1.69;76.40;100479.55;2168183;81;27734;-60
2021/12/20 05:08:34;;;;;;;6.05;2.42;;;;;;;1.67;76.34;100475.59;2161278;82;29261;-61
2021/12/20 05:11:33;;;;;;;6.35;3.17;;;;;;;1.67;76.39;100480.87;2150217;82;32288;-62
2021/12/20 05:14:35;;;;;;;5.87;2.40;;;;;;;1.66;76.23;100464.59;2151950;82;32985;-61
2021/12/20 05:17:44;;;;;;;3.75;1.60;;;;;;;1.65;76.27;100469.90;2155034;82;30233;-61
2021/12/20 05:20:56;;;;;;;6.37;2.85;;;;;;;1.63;76.19;100486.20;2171148;82;27766;-61
2021/12/20 05:23:58;;;;;;;13.95;4.37;;;;;;;1.61;76.24;100494.58;2171306;82;28704;-65
2021/12/20 05:27:00;;;;;;;8.50;3.12;;;;;;;1.62;76.25;100485.34;2170838;82;32263;-62
2021/12/20 05:30:03;;;;;;;7.80;3.00;;;;;;;1.62;76.19;100494.58;2136114;83;33411;-61
2021/12/20 05:33:05;;;;;;;9.28;2.98;;;;;;;1.62;76.16;100493.69;2136101;82;29915;-62
2021/12/20 05:36:07;;;;;;;7.15;2.60;;;;;;;1.62;76.28;100497.22;2150486;82;27630;-62
2021/12/20 05:39:08;;;;;;;6.70;2.05;;;;;;;1.64;76.20;100512.61;2145667;82;28816;-62
2021/12/20 05:42:10;;;;;;;8.30;2.52;;;;;;;1.64;76.12;100515.68;2135841;83;32259;-62
2021/12/20 05:45:15;;;;;;;8.10;2.67;;;;;;;1.65;76.21;100515.69;2159252;82;33382;-61
2021/12/20 05:48:16;;;;;;;6.28;2.20;;;;;;;1.69;76.11;100520.48;2136179;82;29492;-61
2021/12/20 05:51:18;;;;;;;7.92;2.42;;;;;;;1.68;76.16;100514.77;2136393;83;27703;-64
2021/12/20 05:54:20;;;;;;;5.47;2.37;;;;;;;1.73;76.07;100516.03;2150327;82;29897;-70
2021/12/20 05:57:22;;;;;;;7.08;2.75;;;;;;;1.71;76.05;100528.37;2151443;82;32500;-72
2021/12/20 06:00:24;;;;;;;7.00;3.00;;;;;;;1.75;76.08;100534.07;2151452;82;33383;-73
2021/12/20 06:03:26;;;;;;;6.85;4.17;;;;;;;1.76;76.05;100529.22;2153503;82;29583;-72
2021/12/20 06:06:30;;;;;;;8.20;5.33;;;;;;;1.79;76.01;100530.05;2174984;81;27623;-76
2021/12/20 06:09:32;;;;;;;11.68;5.53;;;;;;;1.80;76.06;100533.13;2139160;83;28631;-73
2021/12/20 06:12:33;;;;;;;11.70;3.70;;;;;;;1.80;75.93;100534.45;2176226;81;32272;-70
2021/12/20 06:15:36;;;;;;;7.65;3.00;;;;;;;1.82;75.79;100533.99;2137858;83;33654;-67
2021/12/20 06:18:38;;;;;;;7.55;2.20;;;;;;;1.81;75.80;100528.73;2137179;83;30031;-61
2021/12/20 06:21:40;;;;;;;6.08;4.37;;;;;;;1.82;75.67;100545.88;2137459;83;27677;-60
2021/12/20 06:24:42;;;;;;;10.35;3.92;;;;;;;1.82;75.81;100548.52;2157838;81;29912;-61
2021/12/20 06:27:44;;;;;;;4.35;2.12;;;;;;;1.82;75.67;100551.16;2139527;83;32183;-61
2021/12/20 06:30:47;;;;;;;11.22;2.75;;;;;;;1.84;75.61;100555.56;2176656;81;33774;-61
2021/12/20 06:33:49;;;;;;;4.25;2.62;;;;;;;1.84;75.65;100556.88;2138978;83;29174;-61
2021/12/20 06:36:51;;;;;;;6.58;2.95;;;;;;;1.85;75.57;100561.27;2137190;83;27619;-60
2021/12/20 06:39:53;;;;;;;7.47;2.67;;;;;;;1.86;75.54;100565.67;2137508;83;29567;-60
2021/12/20 06:42:56;;;;;;;10.00;2.67;;;;;;;1.86;75.51;100569.63;2137088;83;31724;-60
2021/12/20 06:45:57;;;;;;;4.58;2.52;;;;;;;1.86;75.53;100577.09;2138930;83;33492;-61
2021/12/20 06:48:59;;;;;;;7.37;2.98;;;;;;;1.88;75.57;100581.06;2176325;81;30301;-60
2021/12/20 06:52:03;;;;;;;17.48;5.42;;;;;;;1.90;75.46;100591.17;2139466;83;27598;-60
2021/12/20 06:55:05;;;;;;;11.30;4.45;;;;;;;1.90;75.31;100584.58;2120389;83;29320;-60
2021/12/20 06:58:06;;;;;;;14.00;6.92;;;;;;;1.87;75.32;100584.13;2137517;83;32270;-61
2021/12/20 07:01:08;;;;;;;9.58;3.98;;;;;;;1.88;75.28;100587.67;2103013;84;33546;-63
2021/12/20 07:04:12;;;;;;;8.20;3.00;;;;;;;1.90;75.36;100593.82;2145876;81;29981;-61
2021/12/20 07:07:14;;;;;;;5.83;2.50;;;;;;;1.90;75.28;100590.72;2145275;82;27645;-60
2021/12/20 07:10:15;;;;;;;6.25;3.02;;;;;;;1.91;75.16;100600.40;2165751;82;29094;-61
2021/12/20 07:13:18;;;;;;;9.70;2.98;;;;;;;1.91;75.27;100605.69;2157645;82;32260;-61
2021/12/20 07:16:20;;;;;;;8.00;2.95;;;;;;;1.93;75.36;100601.27;2152837;82;33858;-61
2021/12/20 07:19:23;;;;;;;8.40;3.37;;;;;;;1.94;75.15;100599.05;2153549;82;29057;-65
2021/12/20 07:22:25;;;;;;;10.28;2.58;;;;;;;1.93;75.08;100606.98;2153956;82;27628;-61
2021/12/20 07:25:27;;;;;;;4.50;2.60;;;;;;;1.94;75.19;100612.69;2153557;82;29548;-60
2021/12/20 07:28:29;;;;;;;5.87;2.50;;;;;;;1.96;75.10;100617.52;2153618;82;31574;-60
2021/12/20 07:31:31;;;;;;;6.67;3.80;;;;;;;1.99;75.19;100625.42;2153482;82;33409;-62
2021/12/20 07:34:33;;;;;;;8.85;3.35;;;;;;;2.00;75.18;100627.61;2155437;82;28835;-62
2021/12/20 07:37:35;;;;;;;10.00;3.40;;;;;;;2.02;75.11;100618.80;2157716;82;27717;-63
2021/12/20 07:40:37;;;;;;;13.13;4.97;;;;;;;2.05;75.15;100613.92;2157810;82;29885;-61
2021/12/20 07:43:42;;;;;;;6.40;3.02;;;;;;;2.07;75.21;100620.07;2157245;82;31969;-60
2021/12/20 07:46:46;;;;;;;9.33;3.05;;;;;;;2.10;75.13;100616.08;2153926;82;34099;-73
2021/12/20 07:49:47;;;;;;;10.68;4.22;;;;;;;2.13;75.21;100624.84;2154183;82;29944;-61
2021/12/20 07:53:07;;;;;;;8.78;2.52;;;;;;;2.17;75.12;100619.08;2153551;82;27743;-65
2021/12/20 07:56:09;;;;;;;8.03;2.52;;;;;;;2.19;75.10;100619.08;2157041;82;28892;-76
2021/12/20 07:59:11;;;;;;;8.63;2.92;;;;;;;2.21;75.00;100617.30;2157620;82;33111;-75
2021/12/20 08:02:14;;;;;;;9.78;3.22;;;;;;;2.22;75.05;100626.98;2153690;82;33400;-72
2021/12/20 08:05:18;;;;;;;11.30;3.90;;;;;;;2.22;75.09;100626.52;2151245;82;29038;-70
2021/12/20 08:08:19;;;;;;;8.13;3.22;;;;;;;2.25;75.12;100628.25;2136024;83;27779;-62
2021/12/20 08:11:22;;;;;;;9.70;3.55;;;;;;;2.28;74.91;100630.88;2148102;82;30889;-64
2021/12/20 08:14:23;;;;;;;11.38;3.30;;;;;;;2.26;74.94;100637.51;2155243;82;31125;-62
2021/12/20 08:17:24;;;;;;;9.23;3.52;;;;;;;2.27;74.96;100635.73;2155293;82;33013;-61
2021/12/20 08:20:26;;;;;;;6.62;2.90;;;;;;;2.29;75.04;100636.59;2138664;83;28348;-62
2021/12/20 08:23:28;;;;;;;9.55;3.77;;;;;;;2.30;74.94;100638.34;2125704;83;27767;-61
2021/12/20 08:26:30;;;;;;;10.13;3.98;;;;;;;2.32;74.93;100642.31;2135971;83;28713;-65
2021/12/20 08:29:31;;;;;;;6.37;3.75;;;;;;;2.36;74.99;100641.36;2135892;82;31180;-61
2021/12/20 08:32:33;;;;;;;9.03;3.42;;;;;;;2.38;74.94;100647.52;2128123;82;32993;-61
2021/12/20 08:35:35;;;;;;;11.38;3.42;;;;;;;2.42;74.85;100646.60;2155815;82;28708;-63
2021/12/20 08:38:39;;;;;;;13.20;4.55;;;;;;;2.41;74.80;100647.03;2156188;82;27688;-68
2021/12/20 08:41:40;;;;;;;13.08;4.15;;;;;;;2.42;74.73;100646.14;2142089;82;29331;-67
2021/12/20 08:44:42;;;;;;;10.13;3.95;;;;;;;2.43;74.74;100653.64;2135901;83;33130;-65
2021/12/20 08:47:45;;;;;;;5.85;3.10;;;;;;;2.43;74.64;100652.33;2136256;83;33717;-62
2021/12/20 08:50:47;;;;;;;11.03;3.62;;;;;;;2.43;74.73;100659.80;2143804;82;29086;-64
2021/12/20 08:53:48;;;;;;;10.15;4.08;;;;;;;2.42;74.61;100654.53;2144705;83;27760;-66
2021/12/20 08:56:51;;;;;;;6.42;3.12;;;;;;;2.41;74.68;100668.19;2144734;82;28689;-63
2021/12/20 08:59:52;;;;;;;7.05;2.62;;;;;;;2.43;74.74;100666.41;2144279;82;31191;-63
2021/12/20 09:02:55;;;;;;;7.12;3.30;;;;;;;2.42;74.55;100678.34;2144653;82;33649;-68
2021/12/20 09:05:57;;;;;;;8.60;4.03;;;;;;;2.40;74.57;100676.14;2143688;83;29096;-63
2021/12/20 09:08:59;;;;;;;31.12;13.88;;;;;;;2.39;74.54;100677.93;2145529;82;27703;-63
2021/12/20 09:12:00;;;;;;;25.88;15.50;;;;;;;2.41;74.62;100669.97;2176100;81;29544;-63
2021/12/20 09:15:05;;;;;;;16.95;9.35;;;;;;;2.41;74.56;100667.33;2176046;81;31098;-62
2021/12/20 09:18:08;;;;;;;12.23;5.83;;;;;;;2.43;74.67;100672.16;2137731;83;33613;-67
2021/12/20 09:21:11;;;;;;;18.12;8.40;;;;;;;2.45;74.69;100676.98;2137422;83;29663;-66
2021/12/20 09:24:13;;;;;;;11.20;6.45;;;;;;;2.48;74.75;100676.07;2137079;83;27729;-63
2021/12/20 09:27:14;;;;;;;11.73;5.22;;;;;;;2.51;74.74;100682.66;2157128;81;29645;-62
2021/12/20 09:30:18;;;;;;;21.87;9.20;;;;;;;2.56;74.82;100688.32;2138998;83;33096;-66
2021/12/20 09:33:20;;;;;;;21.65;11.43;;;;;;;2.61;74.78;100688.27;2176380;81;32978;-63
2021/12/20 09:36:28;;;;;;;24.90;9.15;;;;;;;2.65;74.64;100685.17;2137917;83;29708;-61
2021/12/20 09:39:25;;;;;;;9.30;5.00;;;;;;;2.67;74.53;100685.56;2139767;83;28295;-63
2021/12/20 09:42:27;;;;;;;14.78;7.72;;;;;;;2.68;74.49;100695.69;2139234;82;29022;-63
2021/12/20 09:45:30;;;;;;;24.40;10.20;;;;;;;2.68;74.49;100693.94;2163635;82;31077;-63
2021/12/20 09:48:34;;;;;;;35.50;14.40;;;;;;;2.70;74.55;100685.97;2146888;82;35113;-67
2021/12/20 09:51:36;;;;;;;21.33;9.25;;;;;;;2.68;74.41;100691.30;2163684;82;29072;-63
2021/12/20 09:54:39;;;;;;;15.53;7.03;;;;;;;2.70;74.48;100691.26;2164357;82;27742;-74
2021/12/20 09:57:43;;;;;;;13.22;5.17;;;;;;;2.70;74.33;100697.45;2145263;82;29441;-72
2021/12/20 10:00:44;;;;;;;13.13;5.55;;;;;;;2.72;74.36;100693.02;2132374;83;31027;-62
2021/12/20 10:03:46;;;;;;;14.83;5.85;;;;;;;2.75;74.39;100688.13;2110446;82;35348;-66
2021/12/20 10:06:56;;;;;;;12.58;6.05;;;;;;;2.76;74.39;100687.67;2145756;82;29889;-64
2021/12/20 10:10:00;;;;;;;18.20;8.15;;;;;;;2.79;74.53;100685.89;2139525;82;27759;-62
2021/12/20 10:13:01;;;;;;;15.08;6.10;;;;;;;2.89;74.53;100690.17;2149895;82;28685;-63
2021/12/20 10:16:20;;;;;;;23.07;8.63;;;;;;;3.01;74.49;100689.16;2149935;82;31174;-65
2021/12/20 10:19:36;;;;;;;16.80;7.80;;;;;;;3.11;74.38;100687.27;2150307;82;33066;-64
2021/12/20 10:22:37;;;;;;;16.15;7.03;;;;;;;3.20;74.25;100688.92;2150029;82;29030;-67
2021/12/20 10:25:42;;;;;;;14.50;5.47;;;;;;;3.30;74.37;100680.42;2150089;82;27727;-67
2021/12/20 10:28:45;;;;;;;15.60;6.67;;;;;;;3.42;74.19;100679.34;2150801;82;29310;-62
2021/12/20 10:31:48;;;;;;;18.15;7.03;;;;;;;3.50;73.94;100679.66;2181193;80;31113;-64
2021/12/20 10:34:49;;;;;;;9.13;4.90;;;;;;;3.61;73.83;100670.24;2180464;81;33018;-65
2021/12/20 10:37:55;;;;;;;12.73;6.10;;;;;;;3.73;73.64;100673.16;2125803;83;30019;-63
2021/12/20 10:41:22;;;;;;;11.88;5.58;;;;;;;3.81;73.67;100675.70;2157983;81;27659;-62
2021/12/20 10:44:24;;;;;;;15.58;6.80;;;;;;;3.88;73.42;100680.45;2140789;82;29370;-64
2021/12/20 10:47:26;;;;;;;9.80;5.22;;;;;;;3.93;73.30;100671.52;2151341;82;31079;-63
2021/12/20 10:50:40;;;;;;;10.15;4.28;;;;;;;4.04;73.04;100669.16;2157345;82;32959;-67
2021/12/20 10:53:42;;;;;;;11.93;4.80;;;;;;;4.09;72.97;100672.59;2156642;82;29142;-64
2021/12/20 10:57:05;;;;;;;11.97;4.72;;;;;;;4.16;72.99;100669.38;2130148;82;27664;-65
2021/12/20 11:00:17;;;;;;;11.78;4.55;;;;;;;4.21;72.74;100664.88;2157511;82;29146;-62
2021/12/20 11:09:26;;;;;;;8.35;3.52;;;;;;;4.17;71.95;100672.45;2140980;83;31127;-63
2021/12/20 11:12:31;;;;;;;11.43;4.53;;;;;;;4.16;72.02;100665.40;2164250;82;27774;-63
2021/12/20 11:15:33;;;;;;;11.63;4.40;;;;;;;4.13;72.02;100673.44;2164056;82;29379;-66
2021/12/20 11:18:34;;;;;;;14.07;6.20;;;;;;;4.13;71.92;100676.09;2164066;82;31711;-65
2021/12/20 11:21:58;;;;;;;16.87;7.35;;;;;;;4.12;71.97;100678.31;2135637;82;33315;-66
2021/12/20 11:25:06;;;;;;;13.58;6.97;;;;;;;4.14;72.00;100674.72;2163932;81;29694;-65
2021/12/20 11:28:09;;;;;;;12.33;8.20;;;;;;;4.18;72.04;100680.41;2170597;81;27718;-66
2021/12/20 11:31:13;;;;;;;10.93;6.53;;;;;;;4.23;71.76;100676.34;2176663;81;28647;-66
2021/12/20 11:34:16;;;;;;;8.03;5.13;;;;;;;4.26;71.79;100679.80;2176702;81;31031;-68
2021/12/20 11:37:22;;;;;;;10.60;5.33;;;;;;;4.27;71.51;100682.02;2176187;81;33764;-65
2021/12/20 11:40:23;;;;;;;7.85;4.25;;;;;;;4.30;71.51;100681.98;2176446;81;29965;-64
2021/12/20 11:43:25;;;;;;;12.88;4.67;;;;;;;4.31;71.25;100677.53;2163711;81;27780;-64
2021/12/20 11:46:43;;;;;;;8.65;4.25;;;;;;;4.32;71.24;100677.48;2117102;84;28756;-64
2021/12/20 11:49:55;;;;;;;8.10;3.62;;;;;;;4.29;71.25;100676.24;2094582;84;31060;-63
2021/12/20 11:53:07;;;;;;;7.72;3.98;;;;;;;4.24;71.11;100678.95;2116876;84;32972;-63
2021/12/20 11:56:09;;;;;;;11.18;4.95;;;;;;;4.22;71.25;100675.91;2115917;84;31130;-63
2021/12/20 11:59:12;;;;;;;9.85;4.00;;;;;;;4.23;71.21;100671.03;2116712;82;27705;-65
2021/12/20 12:02:24;;;;;;;16.60;6.10;;;;;;;4.19;70.94;100672.88;2117291;81;28693;-63
2021/12/20 12:05:34;;;;;;;10.60;5.65;;;;;;;4.21;71.10;100672.84;2140744;83;31748;-66
2021/12/20 12:08:42;;;;;;;14.53;6.62;;;;;;;4.23;71.10;100671.03;2125568;83;33022;-63
2021/12/20 12:11:44;;;;;;;21.42;12.10;;;;;;;4.22;70.96;100670.61;2163979;82;29259;-64
2021/12/20 12:15:07;;;;;;;13.70;7.15;;;;;;;4.23;70.98;100675.02;2142684;83;27704;-63
2021/12/20 12:18:10;;;;;;;12.50;6.62;;;;;;;4.22;70.83;100676.77;2144213;83;28888;-63
2021/12/20 12:21:42;;;;;;;14.90;7.30;;;;;;;4.19;70.96;100684.80;2144147;82;31031;-66
2021/12/20 12:24:49;;;;;;;14.18;6.92;;;;;;;4.19;70.96;100687.89;2080995;84;35077;-63
2021/12/20 12:27:59;;;;;;;20.90;9.83;;;;;;;4.18;70.87;100687.03;2123234;83;29149;-63
2021/12/20 12:31:07;;;;;;;17.77;8.30;;;;;;;4.15;70.68;100680.88;2149240;81;27732;-66
2021/12/20 12:34:11;;;;;;;20.02;8.90;;;;;;;4.10;70.57;100687.59;2173303;81;31023;-63
2021/12/20 12:37:34;;;;;;;19.42;7.78;;;;;;;4.02;70.66;100681.09;2173690;81;31011;-65
2021/12/20 12:40:33;;;;;;;17.00;7.25;;;;;;;3.99;70.34;100685.12;2170409;81;34017;-67
2021/12/20 12:44:09;;;;;;;12.82;5.58;;;;;;;3.90;70.34;100681.30;2173282;81;29124;-64
2021/12/20 12:47:14;;;;;;;15.80;7.10;;;;;;;3.83;70.44;100691.13;2173903;81;27925;-67
2021/12/20 12:50:26;;;;;;;13.38;5.83;;;;;;;3.78;70.54;100683.69;2155582;81;28658;-66
2021/12/20 12:53:46;;;;;;;13.13;4.83;;;;;;;3.75;70.42;100678.42;2136328;81;31115;-66
2021/12/20 12:56:47;;;;;;;14.10;5.90;;;;;;;3.73;70.78;100684.20;2136864;83;32967;-62
2021/12/20 12:59:58;;;;;;;11.90;5.37;;;;;;;3.74;70.68;100684.19;2134916;80;29042;-64
2021/12/20 13:03:12;;;;;;;14.73;7.15;;;;;;;3.73;70.61;100689.49;2217051;80;27630;-63
2021/12/20 13:06:20;;;;;;;9.13;4.23;;;;;;;3.72;70.60;100690.42;2216832;80;28723;-65
2021/12/20 13:09:32;;;;;;;11.10;5.90;;;;;;;3.64;70.38;100695.84;2216516;80;33142;-64
2021/12/20 13:15:52;;;;;;;8.68;4.35;;;;;;;3.58;70.65;100702.53;2218682;80;29756;-62
2021/12/20 13:18:51;;;;;;;9.80;4.40;;;;;;;3.55;70.72;100708.77;2218589;80;27642;-66
2021/12/20 13:22:01;;;;;;;9.85;4.75;;;;;;;3.57;70.57;100712.70;2216635;80;30760;-66
2021/12/20 13:25:06;;;;;;;7.65;4.03;;;;;;;3.53;70.74;100711.87;2216961;80;30991;-66
2021/12/20 13:28:15;;;;;;;7.90;4.80;;;;;;;3.53;70.59;100719.83;2217126;80;33670;-67
2021/12/20 13:31:21;;;;;;;12.90;5.70;;;;;;;3.50;70.52;100710.59;2217811;80;31140;-66
2021/12/20 13:34:24;;;;;;;13.18;5.80;;;;;;;3.47;70.59;100718.14;2219707;80;27654;-62
2021/12/20 13:37:31;;;;;;;14.18;6.83;;;;;;;3.45;70.70;100717.72;2220189;80;28722;-62
2021/12/20 13:40:47;;;;;;;12.07;5.80;;;;;;;3.42;70.72;100717.75;2218657;80;31030;-63
2021/12/20 13:44:03;;;;;;;11.65;5.85;;;;;;;3.39;70.79;100720.00;2216904;80;33758;-62
2021/12/20 13:47:16;;;;;;;18.70;7.78;;;;;;;3.38;70.77;100720.89;2217084;80;31189;-65
2021/12/20 13:50:17;;;;;;;11.50;6.45;;;;;;;3.36;70.77;100713.41;2217772;80;28193;-63
2021/12/20 13:53:29;;;;;;;23.12;10.28;;;;;;;3.32;70.68;100716.99;2220307;80;28667;-64
2021/12/20 13:56:31;;;;;;;33.55;15.68;;;;;;;3.29;70.62;100719.70;2219342;80;31248;-64
2021/12/20 13:59:37;;;;;;;26.42;12.15;;;;;;;3.23;70.38;100733.87;2219599;80;33657;-65
2021/12/20 14:02:44;;;;;;;20.60;8.93;;;;;;;3.18;70.44;100742.34;2216917;80;31116;-61
2021/12/20 14:05:47;;;;;;;12.43;5.70;;;;;;;3.14;70.57;100738.86;2217472;80;27731;-63
2021/12/20 14:09:07;;;;;;;22.60;8.43;;;;;;;3.11;70.62;100748.16;2214348;80;29374;-62
2021/12/20 14:12:18;;;;;;;12.05;5.33;;;;;;;3.10;70.83;100754.34;2216094;80;31111;-68
2021/12/20 14:15:26;;;;;;;14.73;6.12;;;;;;;3.07;70.65;100759.66;2217325;80;33004;-64
2021/12/20 14:18:38;;;;;;;18.75;8.95;;;;;;;3.05;70.56;100769.39;2217431;80;29007;-68
2021/12/20 14:21:40;;;;;;;19.73;8.38;;;;;;;3.01;70.61;100769.88;2217463;80;27613;-68
2021/12/20 14:24:41;;;;;;;9.65;4.60;;;;;;;2.99;70.53;100770.77;2217380;80;28631;-66
2021/12/20 14:27:48;;;;;;;17.27;8.60;;;;;;;2.95;70.23;100767.75;2217261;80;30994;-68
2021/12/20 14:30:54;;;;;;;23.35;9.65;;;;;;;2.94;70.46;100768.64;2126272;83;33100;-69
2021/12/20 14:33:59;;;;;;;18.87;10.45;;;;;;;2.92;70.48;100770.42;2176592;81;28448;-66
2021/12/20 14:37:09;;;;;;;12.05;4.83;;;;;;;2.91;70.42;100771.31;2176008;81;27676;-63
2021/12/20 14:40:11;;;;;;;12.55;5.95;;;;;;;2.87;70.26;100767.83;2103115;84;28671;-67
2021/12/20 14:43:16;;;;;;;11.28;4.92;;;;;;;2.83;70.33;100766.96;2139216;83;31019;-61
2021/12/20 14:46:41;;;;;;;13.05;6.80;;;;;;;2.81;70.29;100769.20;2139326;83;33743;-65
2021/12/20 14:49:52;;;;;;;14.15;6.28;;;;;;;2.78;70.23;100766.15;2138502;83;29056;-65